createdAt,value
2023-04-22T00:00:37.900Z,957.99
2023-04-22T00:01:37.640Z,957.97
2023-04-22T00:02:37.763Z,957.99
2023-04-22T00:03:37.833Z,957.98
2023-04-22T00:04:37.922Z,958.05
2023-04-22T00:05:38.096Z,958.02
2023-04-22T00:06:37.406Z,957.99
2023-04-22T00:07:37.363Z,958.00
2023-04-22T00:08:37.646Z,957.99
2023-04-22T00:09:37.587Z,957.94
2023-04-22T00:10:37.408Z,957.95
2023-04-22T00:11:37.373Z,957.97
2023-04-22T00:12:37.133Z,957.98
2023-04-22T00:13:37.180Z,957.94
2023-04-22T00:14:37.040Z,957.93
2023-04-22T00:15:37.403Z,957.94
2023-04-22T00:16:37.053Z,957.97
2023-04-22T00:17:37.091Z,958.00
2023-04-22T00:18:36.866Z,957.99
2023-04-22T00:19:37.228Z,957.99
2023-04-22T00:20:36.818Z,957.99
2023-04-22T00:21:36.720Z,957.99
2023-04-22T00:22:36.826Z,958.01
2023-04-22T00:23:36.643Z,958.00
2023-04-22T00:24:36.570Z,958.00
2023-04-22T00:25:36.574Z,958.05
2023-04-22T00:26:36.662Z,958.10
2023-04-22T00:27:36.716Z,958.10
2023-04-22T00:28:36.485Z,958.15
2023-04-22T00:29:36.678Z,958.12
2023-04-22T00:30:36.333Z,958.14
2023-04-22T00:31:36.312Z,958.08
2023-04-22T00:32:36.293Z,958.07
2023-04-22T00:33:36.151Z,958.03
2023-04-22T00:34:36.504Z,958.03
2023-04-22T00:35:36.057Z,958.01
2023-04-22T00:36:36.022Z,957.99
2023-04-22T00:37:36.120Z,957.97
2023-04-22T00:38:35.917Z,957.99
2023-04-22T00:39:36.132Z,957.98
2023-04-22T00:40:35.989Z,958.00
2023-04-22T00:41:35.774Z,957.96
2023-04-22T00:42:35.731Z,957.91
2023-04-22T00:43:35.755Z,957.94
2023-04-22T00:44:35.638Z,957.90
2023-04-22T00:45:35.772Z,957.91
2023-04-22T00:46:35.581Z,957.85
2023-04-22T00:47:35.509Z,957.85
2023-04-22T00:48:35.583Z,957.89
2023-04-22T00:49:35.401Z,957.89
2023-04-22T00:50:35.610Z,957.87
2023-04-22T00:51:35.360Z,957.88
2023-04-22T00:52:35.636Z,957.90
2023-04-22T00:53:35.218Z,957.93
2023-04-22T00:54:35.429Z,957.95
2023-04-22T00:55:35.123Z,957.93
2023-04-22T00:56:35.232Z,957.90
2023-04-22T00:57:35.042Z,957.90
2023-04-22T00:58:35.019Z,957.89
2023-04-22T00:59:34.941Z,957.87
2023-04-22T01:00:35.130Z,957.87
2023-04-22T01:01:35.160Z,957.86
2023-04-22T01:02:34.980Z,957.83
2023-04-22T01:03:34.934Z,957.80
2023-04-22T01:04:34.712Z,957.80
2023-04-22T01:05:34.657Z,957.80
2023-04-22T01:06:34.898Z,957.78
2023-04-22T01:07:34.573Z,957.82
2023-04-22T01:08:34.705Z,957.79
2023-04-22T01:09:34.465Z,957.77
2023-04-22T01:10:34.425Z,957.76
2023-04-22T01:11:34.525Z,957.75
2023-04-22T01:12:34.587Z,957.79
2023-04-22T01:13:34.539Z,957.80
2023-04-22T01:14:34.234Z,957.80
2023-04-22T01:15:34.359Z,957.82
2023-04-22T01:16:34.196Z,957.76
2023-04-22T01:17:34.431Z,957.75
2023-04-22T01:18:34.064Z,957.76
2023-04-22T01:19:34.178Z,957.76
2023-04-22T01:20:33.964Z,957.75
2023-04-22T01:21:33.915Z,957.80
2023-04-22T01:22:33.856Z,957.86
2023-04-22T01:23:34.000Z,957.84
2023-04-22T01:24:34.055Z,957.88
2023-04-22T01:25:33.809Z,957.89
2023-04-22T01:26:33.671Z,957.82
2023-04-22T01:27:33.639Z,957.82
2023-04-22T01:28:33.577Z,957.83
2023-04-22T01:29:33.641Z,957.80
2023-04-22T01:30:33.512Z,957.85
2023-04-22T01:31:33.698Z,957.85
2023-04-22T01:32:33.422Z,957.88
2023-04-22T01:33:33.341Z,957.88
2023-04-22T01:34:33.483Z,957.90
2023-04-22T01:35:33.535Z,957.89
2023-04-22T01:36:33.281Z,957.89
2023-04-22T01:37:33.159Z,957.87
2023-04-22T01:38:33.107Z,957.89
2023-04-22T01:39:33.063Z,957.83
2023-04-22T01:40:33.106Z,957.84
2023-04-22T01:41:32.994Z,957.81
2023-04-22T01:42:33.142Z,957.87
2023-04-22T01:43:33.182Z,957.89
2023-04-22T01:44:32.822Z,957.92
2023-04-22T01:45:32.783Z,957.89
2023-04-22T01:46:33.059Z,957.94
2023-04-22T01:47:32.725Z,957.89
2023-04-22T01:48:32.776Z,957.88
2023-04-22T01:49:32.632Z,957.90
2023-04-22T01:50:32.542Z,957.89
2023-04-22T01:51:32.815Z,957.97
2023-04-22T01:52:32.450Z,957.97
2023-04-22T01:53:32.588Z,958.00
2023-04-22T01:54:32.355Z,957.97
2023-04-22T01:55:32.442Z,958.01
2023-04-22T01:56:32.260Z,958.00
2023-04-22T01:57:32.426Z,957.95
2023-04-22T01:58:32.170Z,958.00
2023-04-22T01:59:32.219Z,958.01
2023-04-22T02:00:32.092Z,958.02
2023-04-22T02:01:32.207Z,958.06
2023-04-22T02:02:32.329Z,958.09
2023-04-22T02:03:32.169Z,958.10
2023-04-22T02:04:32.098Z,958.11
2023-04-22T02:05:31.849Z,958.11
2023-04-22T02:06:32.073Z,958.06
2023-04-22T02:07:31.749Z,958.05
2023-04-22T02:08:31.881Z,958.09
2023-04-22T02:09:31.671Z,958.09
2023-04-22T02:10:31.689Z,958.12
2023-04-22T02:11:31.571Z,958.13
2023-04-22T02:12:31.754Z,958.15
2023-04-22T02:13:31.455Z,958.12
2023-04-22T02:14:31.520Z,958.13
2023-04-22T02:15:31.428Z,958.17
2023-04-22T02:16:31.571Z,958.18
2023-04-22T02:17:31.266Z,958.19
2023-04-22T02:18:31.254Z,958.20
2023-04-22T02:19:31.582Z,958.14
2023-04-22T02:20:31.119Z,958.16
2023-04-22T02:21:31.356Z,958.20
2023-04-22T02:22:31.064Z,958.22
2023-04-22T02:23:31.168Z,958.19
2023-04-22T02:24:30.936Z,958.19
2023-04-22T02:25:30.987Z,958.16
2023-04-22T02:26:30.874Z,958.19
2023-04-22T02:27:30.990Z,958.20
2023-04-22T02:28:31.050Z,958.24
2023-04-22T02:29:30.708Z,958.27
2023-04-22T02:30:30.658Z,958.24
2023-04-22T02:31:30.871Z,958.24
2023-04-22T02:32:30.614Z,958.20
2023-04-22T02:33:30.628Z,958.24
2023-04-22T02:34:30.482Z,958.30
2023-04-22T02:35:30.412Z,958.30
2023-04-22T02:36:30.647Z,958.29
2023-04-22T02:37:30.344Z,958.22
2023-04-22T02:38:30.456Z,958.24
2023-04-22T02:39:30.227Z,958.25
2023-04-22T02:40:30.475Z,958.28
2023-04-22T02:41:30.142Z,958.26
2023-04-22T02:42:30.290Z,958.23
2023-04-22T02:43:30.038Z,958.29
2023-04-22T02:44:30.096Z,958.26
2023-04-22T02:45:29.950Z,958.31
2023-04-22T02:46:29.948Z,958.27
2023-04-22T02:47:29.872Z,958.29
2023-04-22T02:48:29.916Z,958.26
2023-04-22T02:49:29.756Z,958.24
2023-04-22T02:50:29.929Z,958.22
2023-04-22T02:51:29.658Z,958.23
2023-04-22T02:52:29.791Z,958.21
2023-04-22T02:53:29.760Z,958.22
2023-04-22T02:54:29.515Z,958.22
2023-04-22T02:55:29.779Z,958.25
2023-04-22T02:56:29.485Z,958.28
2023-04-22T02:57:29.580Z,958.35
2023-04-22T02:58:29.330Z,958.35
2023-04-22T02:59:29.381Z,958.37
2023-04-22T03:00:29.260Z,958.35
2023-04-22T03:01:29.552Z,958.38
2023-04-22T03:02:29.493Z,958.36
2023-04-22T03:03:29.192Z,958.32
2023-04-22T03:04:29.134Z,958.32
2023-04-22T03:05:29.228Z,958.37
2023-04-22T03:06:28.948Z,958.32
2023-04-22T03:07:29.235Z,958.32
2023-04-22T03:08:28.858Z,958.31
2023-04-22T03:09:28.806Z,958.29
2023-04-22T03:10:29.059Z,958.34
2023-04-22T03:11:28.714Z,958.32
2023-04-22T03:12:28.865Z,958.30
2023-04-22T03:13:28.653Z,958.38
2023-04-22T03:14:28.672Z,958.35
2023-04-22T03:15:28.529Z,958.37
2023-04-22T03:16:28.935Z,958.42
2023-04-22T03:17:28.438Z,958.38
2023-04-22T03:18:28.497Z,958.37
2023-04-22T03:19:28.345Z,958.40
2023-04-22T03:20:28.313Z,958.41
2023-04-22T03:21:28.250Z,958.46
2023-04-22T03:22:28.330Z,958.41
2023-04-22T03:23:28.149Z,958.47
2023-04-22T03:24:28.346Z,958.50
2023-04-22T03:25:28.054Z,958.46
2023-04-22T03:26:28.406Z,958.49
2023-04-22T03:27:28.157Z,958.46
2023-04-22T03:28:27.920Z,958.47
2023-04-22T03:29:27.980Z,958.45
2023-04-22T03:30:27.816Z,958.47
2023-04-22T03:31:28.058Z,958.49
2023-04-22T03:32:27.774Z,958.46
2023-04-22T03:33:27.794Z,958.42
2023-04-22T03:34:27.628Z,958.44
2023-04-22T03:35:27.805Z,958.41
2023-04-22T03:36:27.545Z,958.40
2023-04-22T03:37:27.487Z,958.40
2023-04-22T03:38:27.676Z,958.38
2023-04-22T03:39:27.642Z,958.37
2023-04-22T03:40:27.343Z,958.36
2023-04-22T03:41:27.455Z,958.36
2023-04-22T03:42:27.257Z,958.43
2023-04-22T03:43:27.205Z,958.35
2023-04-22T03:44:27.463Z,958.40
2023-04-22T03:45:27.126Z,958.37
2023-04-22T03:46:27.332Z,958.40
2023-04-22T03:47:27.054Z,958.43
2023-04-22T03:48:27.085Z,958.40
2023-04-22T03:49:26.923Z,958.47
2023-04-22T03:50:28.334Z,958.45
2023-04-22T03:51:26.830Z,958.48
2023-04-22T03:52:26.914Z,958.52
2023-04-22T03:53:26.740Z,958.50
2023-04-22T03:54:26.680Z,958.50
2023-04-22T03:55:26.633Z,958.50
2023-04-22T03:56:26.749Z,958.50
2023-04-22T03:57:26.547Z,958.51
2023-04-22T03:58:26.744Z,958.53
2023-04-22T03:59:26.602Z,958.47
2023-04-22T04:00:26.401Z,958.50
2023-04-22T04:01:26.578Z,958.47
2023-04-22T04:02:26.438Z,958.45
2023-04-22T04:03:28.036Z,958.45
2023-04-22T04:04:26.528Z,958.42
2023-04-22T04:05:26.470Z,958.38
2023-04-22T04:06:26.114Z,958.38
2023-04-22T04:07:26.205Z,958.40
2023-04-22T04:08:26.030Z,958.36
2023-04-22T04:09:26.218Z,958.38
2023-04-22T04:10:25.929Z,958.41
2023-04-22T04:11:26.076Z,958.42
2023-04-22T04:12:25.837Z,958.39
2023-04-22T04:13:26.053Z,958.38
2023-04-22T04:14:25.749Z,958.41
2023-04-22T04:15:26.884Z,958.43
2023-04-22T04:16:25.707Z,958.43
2023-04-22T04:17:25.720Z,958.44
2023-04-22T04:18:25.688Z,958.46
2023-04-22T04:19:25.497Z,958.45
2023-04-22T04:20:25.704Z,958.47
2023-04-22T04:21:25.421Z,958.47
2023-04-22T04:22:25.372Z,958.48
2023-04-22T04:23:25.550Z,958.52
2023-04-22T04:24:25.512Z,958.58
2023-04-22T04:25:25.217Z,958.55
2023-04-22T04:26:25.315Z,958.51
2023-04-22T04:27:25.116Z,958.53
2023-04-22T04:28:25.077Z,958.46
2023-04-22T04:29:25.354Z,958.44
2023-04-22T04:30:24.984Z,958.44
2023-04-22T04:31:25.186Z,958.40
2023-04-22T04:32:24.918Z,958.42
2023-04-22T04:33:24.955Z,958.47
2023-04-22T04:34:24.785Z,958.51
2023-04-22T04:35:25.022Z,958.52
2023-04-22T04:36:24.979Z,958.56
2023-04-22T04:37:24.650Z,958.55
2023-04-22T04:38:24.785Z,958.55
2023-04-22T04:39:24.543Z,958.52
2023-04-22T04:40:24.800Z,958.48
2023-04-22T04:41:24.476Z,958.45
2023-04-22T04:42:24.637Z,958.44
2023-04-22T04:43:24.368Z,958.45
2023-04-22T04:44:24.830Z,958.42
2023-04-22T04:45:24.259Z,958.43
2023-04-22T04:46:24.451Z,958.42
2023-04-22T04:47:24.181Z,958.43
2023-04-22T04:48:25.269Z,958.41
2023-04-22T04:49:24.072Z,958.40
2023-04-22T04:50:24.282Z,958.40
2023-04-22T04:51:23.977Z,958.45
2023-04-22T04:52:24.077Z,958.41
2023-04-22T04:53:23.884Z,958.49
2023-04-22T04:54:24.081Z,958.50
2023-04-22T04:55:23.780Z,958.51
2023-04-22T04:56:24.162Z,958.51
2023-04-22T04:57:23.691Z,958.49
2023-04-22T04:58:23.917Z,958.53
2023-04-22T04:59:23.608Z,958.54
2023-04-22T05:00:23.722Z,958.56
2023-04-22T05:01:23.570Z,958.54
2023-04-22T05:02:23.800Z,958.61
2023-04-22T05:03:23.532Z,958.62
2023-04-22T05:04:23.663Z,958.64
2023-04-22T05:05:23.321Z,958.65
2023-04-22T05:06:23.560Z,958.62
2023-04-22T05:07:23.237Z,958.65
2023-04-22T05:08:23.327Z,958.66
2023-04-22T05:09:23.134Z,958.66
2023-04-22T05:10:23.293Z,958.66
2023-04-22T05:11:23.048Z,958.75
2023-04-22T05:12:23.095Z,958.74
2023-04-22T05:13:22.943Z,958.71
2023-04-22T05:14:22.919Z,958.74
2023-04-22T05:15:22.909Z,958.77
2023-04-22T05:16:22.851Z,958.82
2023-04-22T05:17:22.961Z,958.82
2023-04-22T05:18:22.708Z,958.80
2023-04-22T05:19:22.738Z,958.75
2023-04-22T05:20:22.659Z,958.73
2023-04-22T05:21:22.964Z,958.76
2023-04-22T05:22:22.640Z,958.84
2023-04-22T05:23:22.714Z,958.87
2023-04-22T05:24:22.446Z,958.87
2023-04-22T05:25:22.397Z,958.84
2023-04-22T05:26:23.406Z,958.86
2023-04-22T05:27:22.478Z,958.84
2023-04-22T05:28:22.456Z,958.83
2023-04-22T05:29:22.190Z,958.77
2023-04-22T05:30:22.224Z,958.84
2023-04-22T05:31:22.321Z,958.92
2023-04-22T05:32:22.286Z,958.94
2023-04-22T05:33:22.046Z,958.93
2023-04-22T05:34:22.035Z,958.94
2023-04-22T05:35:21.908Z,958.98
2023-04-22T05:36:22.045Z,958.99
2023-04-22T05:37:21.813Z,959.03
2023-04-22T05:38:21.860Z,958.96
2023-04-22T05:39:21.919Z,958.92
2023-04-22T05:40:21.866Z,959.02
2023-04-22T05:41:21.625Z,958.98
2023-04-22T05:42:21.583Z,958.97
2023-04-22T05:43:21.532Z,958.94
2023-04-22T05:44:21.693Z,959.03
2023-04-22T05:45:21.452Z,959.01
2023-04-22T05:46:21.546Z,959.00
2023-04-22T05:47:21.390Z,958.94
2023-04-22T05:48:21.362Z,958.93
2023-04-22T05:49:21.253Z,958.99
2023-04-22T05:50:23.341Z,958.99
2023-04-22T05:51:21.166Z,959.04
2023-04-22T05:52:21.340Z,958.98
2023-04-22T05:53:21.069Z,958.96
2023-04-22T05:54:21.359Z,959.03
2023-04-22T05:55:21.217Z,959.05
2023-04-22T05:56:21.167Z,959.01
2023-04-22T05:57:20.903Z,958.97
2023-04-22T05:58:20.977Z,958.98
2023-04-22T05:59:21.746Z,958.99
2023-04-22T06:03:47.976Z,959.05
2023-04-22T06:04:47.396Z,959.18
2023-04-22T06:05:47.404Z,959.11
2023-04-22T06:06:47.150Z,959.08
2023-04-22T06:07:47.160Z,959.06
2023-04-22T06:08:47.056Z,959.08
2023-04-22T06:09:47.174Z,959.12
2023-04-22T06:10:47.182Z,959.10
2023-04-22T06:11:46.913Z,959.06
2023-04-22T06:12:46.997Z,959.02
2023-04-22T06:13:46.824Z,959.11
2023-04-22T06:14:46.798Z,959.12
2023-04-22T06:15:46.889Z,959.09
2023-04-22T06:16:46.673Z,959.11
2023-04-22T06:17:46.834Z,959.21
2023-04-22T06:18:46.592Z,959.26
2023-04-22T06:19:46.628Z,959.26
2023-04-22T06:20:46.493Z,959.26
2023-04-22T06:21:46.645Z,959.35
2023-04-22T06:22:46.414Z,959.36
2023-04-22T06:23:46.454Z,959.37
2023-04-22T06:24:47.720Z,959.38
2023-04-22T06:25:46.678Z,959.37
2023-04-22T06:26:46.222Z,959.44
2023-04-22T06:27:46.182Z,959.42
2023-04-22T06:28:46.123Z,959.39
2023-04-22T06:29:46.310Z,959.42
2023-04-22T06:30:46.036Z,959.37
2023-04-22T06:31:46.375Z,959.43
2023-04-22T06:32:46.022Z,959.40
2023-04-22T06:33:45.895Z,959.40
2023-04-22T06:34:46.021Z,959.37
2023-04-22T06:35:45.937Z,959.37
2023-04-22T06:36:45.763Z,959.38
2023-04-22T06:37:45.946Z,959.34
2023-04-22T06:38:45.675Z,959.36
2023-04-22T06:39:45.659Z,959.36
2023-04-22T06:40:45.599Z,959.38
2023-04-22T06:41:45.791Z,959.37
2023-04-22T06:42:45.496Z,959.38
2023-04-22T06:43:45.778Z,959.40
2023-04-22T06:44:45.404Z,959.40
2023-04-22T06:45:45.591Z,959.48
2023-04-22T06:46:45.341Z,959.43
2023-04-22T06:47:45.418Z,959.43
2023-04-22T06:48:45.229Z,959.41
2023-04-22T06:49:45.423Z,959.43
2023-04-22T06:50:45.149Z,959.44
2023-04-22T06:51:45.433Z,959.44
2023-04-22T06:52:45.049Z,959.46
2023-04-22T06:53:45.238Z,959.46
2023-04-22T06:54:44.973Z,959.47
2023-04-22T06:55:45.048Z,959.47
2023-04-22T06:56:44.895Z,959.51
2023-04-22T06:57:45.066Z,959.52
2023-04-22T06:58:44.923Z,959.50
2023-04-22T07:01:16.078Z,959.53
2023-04-22T07:02:23.846Z,959.53
2023-04-22T07:03:16.141Z,959.55
2023-04-22T07:04:15.993Z,959.56
2023-04-22T07:05:16.048Z,959.56
2023-04-22T07:06:15.855Z,959.51
2023-04-22T07:07:15.849Z,959.53
2023-04-22T07:08:15.906Z,959.50
2023-04-22T07:09:15.873Z,959.51
2023-04-22T07:10:15.690Z,959.51
2023-04-22T07:11:15.683Z,959.43
2023-04-22T07:12:15.593Z,959.45
2023-04-22T07:13:15.697Z,959.42
2023-04-22T07:14:15.741Z,959.39
2023-04-22T07:15:15.704Z,959.39
2023-04-22T07:16:15.429Z,959.40
2023-04-22T07:17:15.376Z,959.39
2023-04-22T07:18:15.528Z,959.41
2023-04-22T07:19:15.320Z,959.42
2023-04-22T07:20:15.264Z,959.41
2023-04-22T07:21:15.361Z,959.42
2023-04-22T07:22:15.149Z,959.42
2023-04-22T07:23:15.163Z,959.41
2023-04-22T07:24:15.066Z,959.45
2023-04-22T07:25:15.021Z,959.47
2023-04-22T07:26:15.098Z,959.45
2023-04-22T07:27:14.971Z,959.50
2023-04-22T07:28:14.883Z,959.45
2023-04-22T07:29:14.983Z,959.48
2023-04-22T07:30:14.804Z,959.48
2023-04-22T07:31:14.801Z,959.47
2023-04-22T07:32:14.847Z,959.50
2023-04-22T07:33:14.823Z,959.47
2023-04-22T07:34:14.626Z,959.51
2023-04-22T07:35:14.623Z,959.47
2023-04-22T07:36:14.639Z,959.51
2023-04-22T07:37:14.495Z,959.50
2023-04-22T07:38:14.815Z,959.52
2023-04-22T07:39:14.400Z,959.52
2023-04-22T07:40:14.453Z,959.54
2023-04-22T07:41:14.321Z,959.53
2023-04-22T07:42:14.269Z,959.56
2023-04-22T07:43:14.254Z,959.58
2023-04-22T07:44:14.488Z,959.51
2023-04-22T07:45:14.174Z,959.50
2023-04-22T07:46:14.328Z,959.51
2023-04-22T07:47:14.063Z,959.47
2023-04-22T07:48:14.019Z,959.46
2023-04-22T07:49:14.376Z,959.45
2023-04-22T07:50:13.939Z,959.43
2023-04-22T07:51:14.120Z,959.44
2023-04-22T07:52:13.848Z,959.38
2023-04-22T07:53:13.934Z,959.37
2023-04-22T07:54:13.764Z,959.33
2023-04-22T07:55:13.948Z,959.34
2023-04-22T07:56:13.702Z,959.30
2023-04-22T07:57:13.790Z,959.35
2023-04-22T07:58:13.821Z,959.38
2023-04-22T07:59:13.556Z,959.40
2023-04-22T08:00:13.585Z,959.39
2023-04-22T08:01:13.641Z,959.42
2023-04-22T08:02:13.521Z,959.43
2023-04-22T08:03:13.783Z,959.47
2023-04-22T08:04:13.451Z,959.47
2023-04-22T08:05:13.362Z,959.44
2023-04-22T08:06:13.434Z,959.43
2023-04-22T08:07:30.873Z,959.43
2023-04-22T08:08:13.176Z,959.38
2023-04-22T08:09:13.445Z,959.40
2023-04-22T08:10:13.092Z,959.41
2023-04-22T08:11:13.056Z,959.39
2023-04-22T08:12:13.255Z,959.40
2023-04-22T08:13:12.975Z,959.40
2023-04-22T08:14:13.067Z,959.47
2023-04-22T08:15:12.899Z,959.44
2023-04-22T08:16:12.926Z,959.41
2023-04-22T08:17:12.802Z,959.46
2023-04-22T08:18:12.910Z,959.44
2023-04-22T08:19:12.737Z,959.43
2023-04-22T08:20:12.909Z,959.46
2023-04-22T08:21:12.764Z,959.51
2023-04-22T08:22:12.597Z,959.43
2023-04-22T08:23:12.554Z,959.45
2023-04-22T08:24:12.739Z,959.39
2023-04-22T08:25:12.480Z,959.43
2023-04-22T08:26:12.546Z,959.41
2023-04-22T08:27:12.427Z,959.42
2023-04-22T08:28:12.354Z,959.43
2023-04-22T08:29:12.369Z,959.41
2023-04-22T08:30:12.278Z,959.42
2023-04-22T08:31:12.410Z,959.41
2023-04-22T08:32:12.181Z,959.39
2023-04-22T08:33:12.392Z,959.37
2023-04-22T08:34:12.108Z,959.34
2023-04-22T08:35:12.204Z,959.34
2023-04-22T08:36:12.197Z,959.33
2023-04-22T08:37:12.218Z,959.33
2023-04-22T08:38:11.939Z,959.37
2023-04-22T08:39:11.905Z,959.35
2023-04-22T08:40:11.853Z,959.32
2023-04-22T08:41:12.039Z,959.33
2023-04-22T08:42:11.892Z,959.32
2023-04-22T08:43:11.849Z,959.31
2023-04-22T08:44:11.698Z,959.29
2023-04-22T08:45:11.657Z,959.31
2023-04-22T08:46:11.658Z,959.29
2023-04-22T08:47:11.876Z,959.34
2023-04-22T08:48:11.534Z,959.37
2023-04-22T08:49:11.692Z,959.37
2023-04-22T08:50:11.474Z,959.36
2023-04-22T08:51:11.412Z,959.30
2023-04-22T08:52:11.709Z,959.36
2023-04-22T08:53:11.337Z,959.32
2023-04-22T08:54:11.532Z,959.32
2023-04-22T08:55:11.253Z,959.31
2023-04-22T08:56:11.220Z,959.27
2023-04-22T08:57:11.205Z,959.30
2023-04-22T08:58:11.354Z,959.29
2023-04-22T08:59:11.092Z,959.31
2023-04-22T09:00:11.180Z,959.36
2023-04-22T09:01:11.050Z,959.33
2023-04-22T09:02:11.005Z,959.39
2023-04-22T09:03:11.300Z,959.38
2023-04-22T09:04:11.353Z,959.41
2023-04-22T09:05:11.005Z,959.39
2023-04-22T09:06:10.817Z,959.42
2023-04-22T09:07:11.012Z,959.43
2023-04-22T09:08:10.741Z,959.43
2023-04-22T09:09:10.840Z,959.41
2023-04-22T09:10:10.705Z,959.37
2023-04-22T09:11:10.835Z,959.40
2023-04-22T09:12:10.588Z,959.36
2023-04-22T09:13:10.641Z,959.40
2023-04-22T09:14:10.512Z,959.40
2023-04-22T09:15:10.650Z,959.31
2023-04-22T09:16:10.733Z,959.32
2023-04-22T09:17:10.670Z,959.30
2023-04-22T09:18:10.462Z,959.18
2023-04-22T09:19:10.322Z,959.24
2023-04-22T09:20:10.321Z,959.24
2023-04-22T09:21:10.518Z,959.22
2023-04-22T09:22:10.239Z,959.23
2023-04-22T09:23:10.299Z,959.22
2023-04-22T09:24:10.144Z,959.27
2023-04-22T09:25:10.368Z,959.28
2023-04-22T09:26:10.324Z,959.31
2023-04-22T09:27:10.039Z,959.30
2023-04-22T09:28:10.135Z,959.33
2023-04-22T09:29:09.971Z,959.36
2023-04-22T09:30:10.153Z,959.32
2023-04-22T09:31:09.906Z,959.30
2023-04-22T09:32:10.008Z,959.31
2023-04-22T09:33:10.057Z,959.30
2023-04-22T09:34:09.786Z,959.30
2023-04-22T09:35:10.004Z,959.32
2023-04-22T09:36:09.832Z,959.31
2023-04-22T09:37:09.687Z,959.33
2023-04-22T09:38:09.809Z,959.32
2023-04-22T09:39:09.623Z,959.35
2023-04-22T09:40:09.812Z,959.33
2023-04-22T09:41:09.549Z,959.30
2023-04-22T09:42:09.627Z,959.33
2023-04-22T09:43:09.683Z,959.32
2023-04-22T09:44:09.634Z,959.36
2023-04-22T09:45:09.460Z,959.34
2023-04-22T09:46:09.677Z,959.36
2023-04-22T09:47:09.512Z,959.39
2023-04-22T09:48:09.502Z,959.40
2023-04-22T09:49:09.288Z,959.33
2023-04-22T09:50:09.500Z,959.38
2023-04-22T09:51:09.222Z,959.37
2023-04-22T09:52:10.313Z,959.20
2023-04-22T09:53:20.319Z,959.31
2023-04-22T09:54:16.415Z,959.29
2023-04-22T09:55:16.899Z,959.33
2023-04-22T09:56:09.313Z,959.33
2023-04-22T09:57:09.027Z,959.31
2023-04-22T09:58:09.137Z,959.24
2023-04-22T09:59:09.188Z,959.22
2023-04-22T10:00:08.941Z,959.23
2023-04-22T10:01:08.907Z,959.24
2023-04-22T10:02:08.981Z,959.14
2023-04-22T10:03:10.699Z,959.19
2023-04-22T10:04:09.034Z,959.11
2023-04-22T10:05:08.937Z,959.08
2023-04-22T10:06:08.744Z,959.17
2023-04-22T10:07:08.701Z,959.27
2023-04-22T10:08:08.869Z,959.36
2023-04-22T10:09:09.635Z,959.29
2023-04-22T10:10:08.806Z,959.23
2023-04-22T10:11:08.863Z,959.31
2023-04-22T10:12:08.542Z,959.19
2023-04-22T10:13:08.642Z,959.17
2023-04-22T10:14:08.480Z,959.15
2023-04-22T10:15:08.634Z,959.12
2023-04-22T10:16:08.415Z,959.13
2023-04-22T10:17:08.714Z,959.15
2023-04-22T10:18:08.471Z,959.15
2023-04-22T10:19:08.317Z,959.15
2023-04-22T10:20:08.468Z,959.19
2023-04-22T10:21:08.242Z,959.26
2023-04-22T10:22:08.482Z,959.18
2023-04-22T10:23:08.538Z,959.21
2023-04-22T10:24:08.140Z,959.21
2023-04-22T10:25:08.297Z,959.30
2023-04-22T10:26:08.075Z,959.28
2023-04-22T10:27:08.391Z,959.32
2023-04-22T10:28:08.009Z,959.20
2023-04-22T10:29:08.122Z,959.27
2023-04-22T10:30:07.946Z,959.15
2023-04-22T10:31:08.163Z,959.19
2023-04-22T10:32:09.121Z,959.21
2023-04-22T10:33:07.963Z,959.20
2023-04-22T10:34:07.803Z,959.15
2023-04-22T10:35:08.165Z,959.19
2023-04-22T10:36:07.978Z,959.22
2023-04-22T10:37:07.714Z,959.21
2023-04-22T10:38:07.780Z,959.22
2023-04-22T10:39:07.637Z,959.18
2023-04-22T10:40:07.808Z,959.21
2023-04-22T10:41:07.611Z,959.29
2023-04-22T10:42:07.546Z,959.28
2023-04-22T10:43:07.610Z,959.27
2023-04-22T10:44:07.473Z,959.28
2023-04-22T10:45:07.637Z,959.28
2023-04-22T10:46:07.435Z,959.36
2023-04-22T10:47:07.847Z,959.25
2023-04-22T10:48:07.414Z,959.20
2023-04-22T10:49:07.299Z,959.17
2023-04-22T10:50:07.464Z,959.22
2023-04-22T10:51:07.243Z,959.19
2023-04-22T10:52:07.473Z,959.34
2023-04-22T10:53:07.177Z,959.19
2023-04-22T10:54:07.130Z,959.17
2023-04-22T10:55:07.111Z,959.21
2023-04-22T10:56:07.299Z,959.15
2023-04-22T10:57:07.030Z,959.17
2023-04-22T10:58:07.107Z,959.11
2023-04-22T10:59:07.187Z,959.07
2023-04-22T11:00:06.951Z,959.09
2023-04-22T11:01:07.165Z,959.28
2023-04-22T11:02:06.906Z,959.13
2023-04-22T11:03:07.027Z,959.17
2023-04-22T11:04:06.858Z,959.21
2023-04-22T11:05:06.954Z,959.19
2023-04-22T11:06:06.980Z,959.23
2023-04-22T11:07:06.688Z,959.21
2023-04-22T11:08:06.780Z,959.17
2023-04-22T11:09:06.618Z,959.25
2023-04-22T11:10:06.806Z,959.22
2023-04-22T11:11:06.846Z,959.16
2023-04-22T11:12:06.546Z,959.15
2023-04-22T11:13:06.610Z,959.12
2023-04-22T11:14:06.440Z,959.12
2023-04-22T11:15:06.628Z,959.06
2023-04-22T11:16:06.426Z,959.00
2023-04-22T11:17:06.323Z,959.02
2023-04-22T11:18:06.300Z,959.07
2023-04-22T11:19:06.444Z,959.07
2023-04-22T11:20:06.226Z,959.07
2023-04-22T11:21:06.489Z,959.06
2023-04-22T11:22:06.319Z,959.07
2023-04-22T11:23:06.116Z,958.99
2023-04-22T11:24:06.073Z,958.99
2023-04-22T11:25:06.328Z,959.01
2023-04-22T11:26:06.023Z,958.99
2023-04-22T11:27:06.157Z,958.96
2023-04-22T11:28:05.957Z,959.02
2023-04-22T11:29:05.892Z,958.98
2023-04-22T11:30:05.860Z,959.06
2023-04-22T11:31:05.923Z,958.99
2023-04-22T11:32:05.782Z,959.01
2023-04-22T11:33:05.932Z,958.98
2023-04-22T11:34:05.996Z,959.00
2023-04-22T11:35:05.705Z,959.01
2023-04-22T11:36:05.756Z,958.97
2023-04-22T11:37:05.596Z,958.97
2023-04-22T11:38:05.793Z,958.95
2023-04-22T11:39:05.508Z,958.99
2023-04-22T11:40:20.867Z,958.95
2023-04-22T11:41:05.436Z,958.97
2023-04-22T11:42:05.591Z,958.98
2023-04-22T11:43:05.355Z,958.96
2023-04-22T11:44:05.616Z,958.97
2023-04-22T11:45:05.274Z,958.96
2023-04-22T11:46:05.647Z,958.87
2023-04-22T11:47:05.203Z,958.89
2023-04-22T11:48:05.431Z,958.89
2023-04-22T11:49:05.129Z,959.00
2023-04-22T11:50:05.239Z,958.96
2023-04-22T11:51:05.060Z,958.96
2023-04-22T11:52:05.258Z,958.88
2023-04-22T11:53:04.981Z,958.92
2023-04-22T11:54:05.065Z,958.82
2023-04-22T11:55:04.919Z,958.91
2023-04-22T11:56:05.085Z,958.86
2023-04-22T11:57:04.855Z,958.88
2023-04-22T11:58:05.092Z,958.91
2023-04-22T11:59:04.802Z,958.87
2023-04-22T12:00:05.017Z,958.86
2023-04-22T12:01:04.705Z,958.88
2023-04-22T12:02:04.862Z,958.83
2023-04-22T12:03:04.764Z,958.78
2023-04-22T12:04:05.131Z,958.72
2023-04-22T12:05:04.574Z,958.69
2023-04-22T12:06:04.772Z,958.66
2023-04-22T12:07:04.500Z,958.69
2023-04-22T12:08:04.657Z,958.74
2023-04-22T12:09:04.439Z,958.76
2023-04-22T12:10:04.666Z,958.73
2023-04-22T12:11:04.519Z,958.85
2023-04-22T12:12:04.501Z,958.78
2023-04-22T12:13:04.298Z,958.81
2023-04-22T12:14:04.492Z,958.83
2023-04-22T12:15:04.233Z,958.83
2023-04-22T12:16:04.531Z,958.85
2023-04-22T12:17:04.250Z,958.80
2023-04-22T12:18:04.317Z,958.83
2023-04-22T12:19:04.102Z,958.84
2023-04-22T12:20:04.332Z,958.90
2023-04-22T12:21:04.037Z,958.80
2023-04-22T12:22:04.374Z,958.75
2023-04-22T12:23:03.966Z,958.76
2023-04-22T12:24:04.155Z,958.75
2023-04-22T12:25:03.961Z,958.73
2023-04-22T12:26:04.175Z,958.71
2023-04-22T12:27:03.892Z,958.78
2023-04-22T12:28:03.796Z,958.76
2023-04-22T12:29:03.762Z,958.84
2023-04-22T12:30:04.005Z,958.85
2023-04-22T12:31:03.739Z,958.89
2023-04-22T12:32:03.694Z,958.90
2023-04-22T12:33:03.814Z,958.90